Kezdőlap
METAR-TAF:

METAR-TAF

Repülőterek :

Frenchville, Maine, Amerikai Egyesült Államok

földrajzi szélesség: 47-17-06N, földrajzi hosszúság: 068-18-26W, magasság: 301 m

Jelenlegi meteorológiai megfigyelések

A jelentés 27 perccel ezelõtt készült, 00:53 UTC
Nyugat-délnyugati szél 10 kt széllökések: 17 kt
Hőmérséklet 21°C
Páratartalom 60%
Légköri nyomás 1012 hPa
Látótávolság: 16.1 km
Borult 8500 lábon

METAR: KFVE 060053Z AUTO 25010G17KT 10SM OVC085 21/13 A2987 RMK AO2 RAE2354 SLP111 P0000 T02060133

Idő: 21:20 (01:20 UTC)

Előrejelzés

A jelentés 1 órával és 44 perccel ezelõtt készült, 23:36 UTC
Az előrejelzés 06-én 00 óra UTC és 06-én 24 óra UTC között érvényes
Nyugat-délnyugati szél 10 kt
Látótávolság: 10 km
Kevés felhő 7000 lábon
06-én 1300 órától UTC szerint
Nyugati szél 15 kt széllökések: 24 kt
Látótávolság: 10 km
Kevés felhő 4000 lábon

TAF: KFVE 052336Z 0600/0624 25010KT P6SM FEW070 FM061300 26015G24KT P6SM FEW040

Meteorológiai megfigyelések és előrejelzések több, mint 4000 repülőtéren (METAR és TAF jelentéseket).

A térképen piros és sárga pontok jelzik az elérhető meteorológiai állomásokat.

Mozgassa az egeret a pont fölött, hogy megjelenjen az állomás neve.

Azután kattintson az időjárási megfigyelések és előrejelzések megtekintéséhez.

A térkép megváltoztatása: kattintson a fekete keresztel jelölt zöld gombra ráközelítéshez, a vonallal jelölt zöld gombra távolításhoz, vagy a zöld nyilakra a szomszédos térképek eléréséhez.


METAR-TAF: